RYR35MU LIRP-LICR
Flight info
| Callsign | RYR35MU |
|---|---|
| Flight time | 1h 13m |
| Altitude | 19000 |
| Route | DOCME M729 GILIO/N0421F310 DCT MEDAL DCT ELVIN DCT RIFFI DCT PIGER/N0335F180 L869 PEROS |
| Aircraft | B738/M-SDE3FGILRWY/SB1 |
Departure
| Time | 2026-05-01 10:20 |
|---|---|
| Airport | Pisa International Airport (LIRP) |
Arrival
| Time | 2026-05-01 11:34 |
|---|---|
| Airport | Reggio Calabria Airport (LICR) |
| Time | Latitude | Longitude | Altitude | Speed | Heading |
|---|---|---|---|---|---|
| 2026-05-01 10:06 | 43.69748 | 10.40031 | 14 ft | 0 kts | 9° |
| 2026-05-01 10:09 | 43.69731 | 10.40027 | 14 ft | 4 kts | 9° |
| 2026-05-01 10:09 | 43.69705 | 10.40025 | 14 ft | 4 kts | 346° |
| 2026-05-01 10:09 | 43.69683 | 10.40041 | 16 ft | 4 kts | 298° |
| 2026-05-01 10:10 | 43.69679 | 10.40056 | 14 ft | 0 kts | 279° |
| 2026-05-01 10:12 | 43.69680 | 10.40047 | 14 ft | 2 kts | 279° |
| 2026-05-01 10:12 | 43.69682 | 10.40026 | 14 ft | 5 kts | 279° |
| 2026-05-01 10:12 | 43.69604 | 10.39933 | 14 ft | 9 kts | 189° |
| 2026-05-01 10:13 | 43.69545 | 10.39920 | 14 ft | 8 kts | 189° |
| 2026-05-01 10:13 | 43.69487 | 10.39907 | 15 ft | 9 kts | 189° |
| 2026-05-01 10:13 | 43.69414 | 10.39892 | 15 ft | 12 kts | 186° |
| 2026-05-01 10:14 | 43.69240 | 10.39917 | 22 ft | 13 kts | 173° |
| 2026-05-01 10:14 | 43.69151 | 10.39895 | 23 ft | 15 kts | 214° |
| 2026-05-01 10:14 | 43.69057 | 10.39798 | 19 ft | 19 kts | 217° |
| 2026-05-01 10:14 | 43.68948 | 10.39686 | 18 ft | 21 kts | 217° |
| 2026-05-01 10:15 | 43.68824 | 10.39559 | 17 ft | 23 kts | 217° |
| 2026-05-01 10:15 | 43.68693 | 10.39423 | 17 ft | 25 kts | 217° |
| 2026-05-01 10:15 | 43.68556 | 10.39282 | 18 ft | 24 kts | 217° |
| 2026-05-01 10:15 | 43.68427 | 10.39150 | 15 ft | 23 kts | 217° |
| 2026-05-01 10:16 | 43.68303 | 10.39021 | 14 ft | 22 kts | 217° |
| 2026-05-01 10:16 | 43.68182 | 10.38897 | 13 ft | 21 kts | 217° |
| 2026-05-01 10:16 | 43.67951 | 10.38656 | 13 ft | 20 kts | 217° |
| 2026-05-01 10:17 | 43.67841 | 10.38542 | 13 ft | 20 kts | 216° |
| 2026-05-01 10:17 | 43.67629 | 10.38328 | 13 ft | 18 kts | 216° |
| 2026-05-01 10:17 | 43.67528 | 10.38226 | 14 ft | 18 kts | 216° |
| 2026-05-01 10:18 | 43.67379 | 10.38125 | 14 ft | 10 kts | 144° |
| 2026-05-01 10:18 | 43.67337 | 10.38195 | 14 ft | 9 kts | 126° |
| 2026-05-01 10:18 | 43.67300 | 10.38267 | 14 ft | 9 kts | 126° |
| 2026-05-01 10:19 | 43.67311 | 10.38328 | 14 ft | 6 kts | 37° |
| 2026-05-01 10:19 | 43.67366 | 10.38385 | 15 ft | 28 kts | 37° |
| 2026-05-01 10:19 | 43.67719 | 10.38749 | 17 ft | 96 kts | 37° |
| 2026-05-01 10:20 | 43.69269 | 10.40374 | 484 ft | 159 kts | 42° |
| 2026-05-01 10:20 | 43.70142 | 10.41308 | 1313 ft | 152 kts | 39° |
| 2026-05-01 10:20 | 43.71001 | 10.42160 | 2126 ft | 153 kts | 35° |
| 2026-05-01 10:20 | 43.71933 | 10.42888 | 2899 ft | 153 kts | 25° |
| 2026-05-01 10:21 | 43.72983 | 10.43250 | 3623 ft | 159 kts | 13° |
| 2026-05-01 10:21 | 43.75219 | 10.42909 | 5066 ft | 169 kts | 343° |
| 2026-05-01 10:21 | 43.76278 | 10.42106 | 5711 ft | 177 kts | 328° |
| 2026-05-01 10:22 | 43.77684 | 10.39840 | 6509 ft | 210 kts | 301° |
| 2026-05-01 10:22 | 43.78417 | 10.35619 | 7176 ft | 239 kts | 284° |
| 2026-05-01 10:23 | 43.78704 | 10.33336 | 7641 ft | 242 kts | 284° |
| 2026-05-01 10:23 | 43.79309 | 10.28694 | 8709 ft | 249 kts | 285° |
| 2026-05-01 10:23 | 43.79622 | 10.26322 | 9397 ft | 251 kts | 284° |
| 2026-05-01 10:24 | 43.78660 | 10.21720 | 10750 ft | 267 kts | 227° |
| 2026-05-01 10:24 | 43.75272 | 10.19572 | 11932 ft | 276 kts | 192° |
| 2026-05-01 10:25 | 43.71540 | 10.19791 | 13099 ft | 271 kts | 143° |
| 2026-05-01 10:25 | 43.69385 | 10.23888 | 13941 ft | 274 kts | 98° |
| 2026-05-01 10:26 | 43.68930 | 10.26451 | 14587 ft | 276 kts | 96° |
| 2026-05-01 10:26 | 43.68486 | 10.29046 | 15262 ft | 279 kts | 96° |
| 2026-05-01 10:26 | 43.67189 | 10.34193 | 16572 ft | 302 kts | 123° |
| 2026-05-01 10:27 | 43.63212 | 10.36611 | 17450 ft | 350 kts | 182° |
| 2026-05-01 10:27 | 43.58491 | 10.34352 | 18521 ft | 367 kts | 206° |
| 2026-05-01 10:28 | 43.56164 | 10.32855 | 19135 ft | 370 kts | 205° |
| 2026-05-01 10:28 | 43.51410 | 10.29898 | 20273 ft | 380 kts | 204° |
| 2026-05-01 10:28 | 43.48969 | 10.28455 | 20865 ft | 384 kts | 203° |
| 2026-05-01 10:29 | 43.43992 | 10.25600 | 22011 ft | 392 kts | 201° |
| 2026-05-01 10:29 | 43.41460 | 10.24169 | 22568 ft | 396 kts | 201° |
| 2026-05-01 10:30 | 43.36311 | 10.21270 | 23683 ft | 404 kts | 201° |
| 2026-05-01 10:30 | 43.31120 | 10.18352 | 24725 ft | 406 kts | 202° |
| 2026-05-01 10:31 | 43.25855 | 10.15394 | 25643 ft | 412 kts | 202° |
| 2026-05-01 10:31 | 43.20500 | 10.12392 | 26541 ft | 418 kts | 202° |
| 2026-05-01 10:32 | 43.14947 | 10.09992 | 27403 ft | 423 kts | 179° |
| 2026-05-01 10:32 | 43.12031 | 10.10406 | 27673 ft | 424 kts | 161° |
| 2026-05-01 10:32 | 43.06693 | 10.14001 | 27839 ft | 438 kts | 145° |
| 2026-05-01 10:33 | 43.01284 | 10.18251 | 28109 ft | 457 kts | 145° |
| 2026-05-01 10:33 | 42.95701 | 10.22547 | 28873 ft | 464 kts | 146° |
| 2026-05-01 10:34 | 42.92868 | 10.24698 | 29174 ft | 469 kts | 146° |
| 2026-05-01 10:34 | 42.90004 | 10.26863 | 29533 ft | 471 kts | 146° |
| 2026-05-01 10:34 | 42.87126 | 10.29034 | 29902 ft | 474 kts | 146° |
| 2026-05-01 10:35 | 42.81330 | 10.33404 | 30562 ft | 479 kts | 146° |
| 2026-05-01 10:35 | 42.78411 | 10.35604 | 30827 ft | 481 kts | 146° |
| 2026-05-01 10:35 | 42.75479 | 10.37821 | 31099 ft | 482 kts | 145° |
| 2026-05-01 10:35 | 42.72702 | 10.40380 | 31304 ft | 482 kts | 137° |
| 2026-05-01 10:36 | 42.68014 | 10.46835 | 31797 ft | 480 kts | 127° |
| 2026-05-01 10:36 | 42.65773 | 10.50216 | 32056 ft | 482 kts | 127° |
| 2026-05-01 10:36 | 42.63519 | 10.53594 | 32323 ft | 484 kts | 128° |
| 2026-05-01 10:37 | 42.61242 | 10.56967 | 32667 ft | 484 kts | 128° |
| 2026-05-01 10:37 | 42.56653 | 10.63681 | 33252 ft | 487 kts | 129° |
| 2026-05-01 10:37 | 42.54340 | 10.67047 | 33538 ft | 488 kts | 129° |
| 2026-05-01 10:38 | 42.52026 | 10.70411 | 33885 ft | 488 kts | 129° |
| 2026-05-01 10:38 | 42.49710 | 10.73778 | 34110 ft | 489 kts | 130° |
| 2026-05-01 10:38 | 42.47377 | 10.77166 | 34259 ft | 493 kts | 130° |
| 2026-05-01 10:38 | 42.45036 | 10.80558 | 34509 ft | 493 kts | 130° |
| 2026-05-01 10:39 | 42.42694 | 10.83944 | 34842 ft | 491 kts | 130° |
| 2026-05-01 10:39 | 42.40364 | 10.87309 | 35162 ft | 489 kts | 130° |
| 2026-05-01 10:39 | 42.38037 | 10.90669 | 35419 ft | 489 kts | 130° |
| 2026-05-01 10:39 | 42.35706 | 10.94031 | 35648 ft | 490 kts | 130° |
| 2026-05-01 10:40 | 42.33374 | 10.97391 | 35893 ft | 490 kts | 130° |
| 2026-05-01 10:40 | 42.31045 | 11.00745 | 36174 ft | 489 kts | 130° |
| 2026-05-01 10:40 | 42.28721 | 11.04089 | 36436 ft | 488 kts | 130° |
| 2026-05-01 10:40 | 42.26397 | 11.07431 | 36662 ft | 488 kts | 130° |
| 2026-05-01 10:41 | 42.24069 | 11.10775 | 36885 ft | 489 kts | 130° |
| 2026-05-01 10:41 | 42.21742 | 11.14115 | 37130 ft | 488 kts | 130° |
| 2026-05-01 10:41 | 42.17071 | 11.20806 | 37273 ft | 493 kts | 130° |
| 2026-05-01 10:42 | 42.14721 | 11.24165 | 37285 ft | 493 kts | 130° |
| 2026-05-01 10:42 | 42.10035 | 11.30852 | 37287 ft | 487 kts | 130° |
| 2026-05-01 10:43 | 42.05403 | 11.37450 | 37269 ft | 484 kts | 130° |
| 2026-05-01 10:43 | 42.00785 | 11.44011 | 37263 ft | 482 kts | 130° |
| 2026-05-01 10:44 | 41.96213 | 11.50493 | 37268 ft | 481 kts | 130° |
| 2026-05-01 10:44 | 41.91607 | 11.57013 | 37266 ft | 482 kts | 130° |
| 2026-05-01 10:45 | 41.87026 | 11.63485 | 37262 ft | 483 kts | 130° |
| 2026-05-01 10:45 | 41.82375 | 11.70041 | 37291 ft | 486 kts | 130° |
| 2026-05-01 10:46 | 41.77721 | 11.76585 | 37256 ft | 488 kts | 131° |
| 2026-05-01 10:46 | 41.73022 | 11.83176 | 37268 ft | 490 kts | 131° |
| 2026-05-01 10:47 | 41.68304 | 11.89780 | 37263 ft | 491 kts | 131° |
| 2026-05-01 10:47 | 41.63572 | 11.96389 | 37255 ft | 492 kts | 131° |
| 2026-05-01 10:48 | 41.58829 | 12.02999 | 37244 ft | 493 kts | 131° |
| 2026-05-01 10:48 | 41.54081 | 12.09603 | 37227 ft | 493 kts | 132° |
| 2026-05-01 10:49 | 41.49340 | 12.16180 | 37237 ft | 491 kts | 133° |
| 2026-05-01 10:49 | 41.44603 | 12.22723 | 37232 ft | 489 kts | 133° |
| 2026-05-01 10:50 | 41.39876 | 12.29231 | 37233 ft | 488 kts | 133° |
| 2026-05-01 10:50 | 41.35163 | 12.35713 | 37238 ft | 486 kts | 133° |
| 2026-05-01 10:51 | 41.30460 | 12.42168 | 37249 ft | 485 kts | 133° |
| 2026-05-01 10:51 | 41.25759 | 12.48607 | 37240 ft | 485 kts | 133° |
| 2026-05-01 10:52 | 41.21036 | 12.54919 | 37240 ft | 485 kts | 137° |
| 2026-05-01 10:52 | 41.15924 | 12.60772 | 37252 ft | 486 kts | 140° |
| 2026-05-01 10:53 | 41.10704 | 12.66505 | 37245 ft | 487 kts | 140° |
| 2026-05-01 10:53 | 41.05509 | 12.72263 | 37220 ft | 488 kts | 140° |
| 2026-05-01 10:54 | 41.00312 | 12.78083 | 37278 ft | 490 kts | 140° |
| 2026-05-01 10:54 | 40.95096 | 12.83936 | 37253 ft | 493 kts | 140° |
| 2026-05-01 10:55 | 40.89847 | 12.89815 | 37249 ft | 495 kts | 140° |
| 2026-05-01 10:55 | 40.84573 | 12.95705 | 37246 ft | 497 kts | 140° |
| 2026-05-01 10:56 | 40.79288 | 13.01593 | 37236 ft | 497 kts | 141° |
| 2026-05-01 10:56 | 40.73996 | 13.07477 | 37240 ft | 498 kts | 141° |
| 2026-05-01 10:57 | 40.68720 | 13.13329 | 37241 ft | 499 kts | 141° |
| 2026-05-01 10:57 | 40.63405 | 13.19211 | 37244 ft | 499 kts | 141° |
| 2026-05-01 10:58 | 40.58083 | 13.25090 | 37220 ft | 499 kts | 141° |
| 2026-05-01 10:58 | 40.52762 | 13.30955 | 37233 ft | 499 kts | 141° |
| 2026-05-01 10:59 | 40.47440 | 13.36808 | 37234 ft | 498 kts | 141° |
| 2026-05-01 10:59 | 40.42123 | 13.42643 | 37233 ft | 498 kts | 141° |
| 2026-05-01 11:00 | 40.36806 | 13.48465 | 37233 ft | 498 kts | 141° |
| 2026-05-01 11:00 | 40.31490 | 13.54275 | 37228 ft | 497 kts | 142° |
| 2026-05-01 11:01 | 40.26181 | 13.60064 | 37232 ft | 496 kts | 142° |
| 2026-05-01 11:01 | 40.20876 | 13.65837 | 37224 ft | 496 kts | 142° |
| 2026-05-01 11:02 | 40.15569 | 13.71599 | 37226 ft | 495 kts | 142° |
| 2026-05-01 11:02 | 40.10270 | 13.77341 | 37225 ft | 495 kts | 142° |
| 2026-05-01 11:03 | 40.04972 | 13.83071 | 37191 ft | 494 kts | 143° |
| 2026-05-01 11:03 | 40.02314 | 13.85940 | 36889 ft | 497 kts | 143° |
| 2026-05-01 11:03 | 39.99669 | 13.88793 | 36565 ft | 491 kts | 143° |
| 2026-05-01 11:03 | 39.97043 | 13.91625 | 36182 ft | 487 kts | 143° |
| 2026-05-01 11:04 | 39.94443 | 13.94425 | 35802 ft | 484 kts | 144° |
| 2026-05-01 11:04 | 39.91855 | 13.97208 | 35416 ft | 481 kts | 144° |
| 2026-05-01 11:04 | 39.89314 | 13.99937 | 35032 ft | 479 kts | 144° |
| 2026-05-01 11:04 | 39.86751 | 14.02687 | 34639 ft | 477 kts | 144° |
| 2026-05-01 11:05 | 39.84193 | 14.05429 | 34244 ft | 475 kts | 144° |
| 2026-05-01 11:05 | 39.81645 | 14.08157 | 33804 ft | 473 kts | 144° |
| 2026-05-01 11:05 | 39.79109 | 14.10870 | 33397 ft | 471 kts | 144° |
| 2026-05-01 11:05 | 39.76583 | 14.13571 | 33004 ft | 469 kts | 144° |
| 2026-05-01 11:06 | 39.74074 | 14.16250 | 32625 ft | 466 kts | 145° |
| 2026-05-01 11:06 | 39.71571 | 14.18920 | 32246 ft | 464 kts | 145° |
| 2026-05-01 11:06 | 39.69084 | 14.21571 | 31880 ft | 462 kts | 145° |
| 2026-05-01 11:07 | 39.64133 | 14.26839 | 31119 ft | 459 kts | 146° |
| 2026-05-01 11:07 | 39.61672 | 14.29454 | 30744 ft | 457 kts | 146° |
| 2026-05-01 11:07 | 39.59211 | 14.32066 | 30374 ft | 456 kts | 146° |
| 2026-05-01 11:07 | 39.56758 | 14.34667 | 29884 ft | 455 kts | 147° |
| 2026-05-01 11:08 | 39.54317 | 14.37255 | 29510 ft | 451 kts | 147° |
| 2026-05-01 11:08 | 39.51895 | 14.39820 | 29121 ft | 449 kts | 147° |
| 2026-05-01 11:08 | 39.47092 | 14.44898 | 28362 ft | 443 kts | 147° |
| 2026-05-01 11:09 | 39.44713 | 14.47410 | 27989 ft | 440 kts | 146° |
| 2026-05-01 11:09 | 39.42344 | 14.49909 | 27617 ft | 438 kts | 146° |
| 2026-05-01 11:09 | 39.39988 | 14.52390 | 27245 ft | 436 kts | 146° |
| 2026-05-01 11:10 | 39.36100 | 14.56482 | 26625 ft | 432 kts | 146° |
| 2026-05-01 11:10 | 39.33772 | 14.58929 | 26258 ft | 430 kts | 146° |
| 2026-05-01 11:10 | 39.31455 | 14.61362 | 25870 ft | 429 kts | 146° |
| 2026-05-01 11:10 | 39.29144 | 14.63788 | 25508 ft | 427 kts | 146° |
| 2026-05-01 11:11 | 39.26841 | 14.66201 | 25124 ft | 426 kts | 146° |
| 2026-05-01 11:11 | 39.24543 | 14.68608 | 24753 ft | 425 kts | 146° |
| 2026-05-01 11:11 | 39.22249 | 14.71009 | 24380 ft | 424 kts | 146° |
| 2026-05-01 11:11 | 39.19219 | 14.74176 | 23889 ft | 423 kts | 146° |
| 2026-05-01 11:12 | 39.17675 | 14.75790 | 23612 ft | 423 kts | 145° |
| 2026-05-01 11:12 | 39.15395 | 14.78170 | 23198 ft | 421 kts | 145° |
| 2026-05-01 11:12 | 39.13127 | 14.80536 | 22818 ft | 418 kts | 145° |
| 2026-05-01 11:12 | 39.10906 | 14.82852 | 22454 ft | 415 kts | 145° |
| 2026-05-01 11:13 | 39.08671 | 14.85179 | 22095 ft | 412 kts | 144° |
| 2026-05-01 11:13 | 39.06451 | 14.87490 | 21696 ft | 409 kts | 145° |
| 2026-05-01 11:13 | 39.04246 | 14.89782 | 21353 ft | 406 kts | 145° |
| 2026-05-01 11:13 | 39.02058 | 14.92056 | 21018 ft | 403 kts | 144° |
| 2026-05-01 11:14 | 38.99885 | 14.94311 | 20684 ft | 400 kts | 144° |
| 2026-05-01 11:14 | 38.97725 | 14.96550 | 20336 ft | 398 kts | 144° |
| 2026-05-01 11:14 | 38.95578 | 14.98775 | 19981 ft | 395 kts | 144° |
| 2026-05-01 11:14 | 38.93443 | 15.00985 | 19636 ft | 393 kts | 144° |
| 2026-05-01 11:15 | 38.91291 | 15.03211 | 19291 ft | 390 kts | 143° |
| 2026-05-01 11:15 | 38.89211 | 15.05361 | 18956 ft | 388 kts | 143° |
| 2026-05-01 11:15 | 38.87112 | 15.07529 | 18615 ft | 386 kts | 143° |
| 2026-05-01 11:15 | 38.85028 | 15.09681 | 18238 ft | 384 kts | 143° |
| 2026-05-01 11:16 | 38.82956 | 15.11818 | 17866 ft | 381 kts | 143° |
| 2026-05-01 11:16 | 38.80898 | 15.13939 | 17483 ft | 378 kts | 143° |
| 2026-05-01 11:16 | 38.78859 | 15.16039 | 17141 ft | 375 kts | 143° |
| 2026-05-01 11:16 | 38.76834 | 15.18123 | 16816 ft | 371 kts | 143° |
| 2026-05-01 11:17 | 38.74828 | 15.20186 | 16487 ft | 368 kts | 143° |
| 2026-05-01 11:17 | 38.72835 | 15.22234 | 16160 ft | 366 kts | 143° |
| 2026-05-01 11:17 | 38.70858 | 15.24263 | 15833 ft | 363 kts | 143° |
| 2026-05-01 11:17 | 38.68895 | 15.26278 | 15512 ft | 360 kts | 143° |
| 2026-05-01 11:18 | 38.66945 | 15.28278 | 15191 ft | 358 kts | 142° |
| 2026-05-01 11:18 | 38.65007 | 15.30263 | 14885 ft | 356 kts | 143° |
| 2026-05-01 11:18 | 38.63078 | 15.32238 | 14556 ft | 354 kts | 143° |
| 2026-05-01 11:18 | 38.61161 | 15.34201 | 14241 ft | 352 kts | 142° |
| 2026-05-01 11:19 | 38.59256 | 15.36149 | 13909 ft | 350 kts | 142° |
| 2026-05-01 11:19 | 38.57358 | 15.38088 | 13556 ft | 348 kts | 142° |
| 2026-05-01 11:19 | 38.55470 | 15.40008 | 13216 ft | 346 kts | 144° |
| 2026-05-01 11:19 | 38.53419 | 15.41524 | 12978 ft | 336 kts | 160° |
| 2026-05-01 11:20 | 38.51262 | 15.42625 | 12699 ft | 333 kts | 161° |
| 2026-05-01 11:20 | 38.49108 | 15.43676 | 12389 ft | 330 kts | 162° |
| 2026-05-01 11:20 | 38.46968 | 15.44720 | 12088 ft | 328 kts | 161° |
| 2026-05-01 11:20 | 38.44848 | 15.45765 | 11786 ft | 326 kts | 161° |
| 2026-05-01 11:21 | 38.42743 | 15.46813 | 11478 ft | 324 kts | 161° |
| 2026-05-01 11:21 | 38.40651 | 15.47863 | 11179 ft | 322 kts | 160° |
| 2026-05-01 11:21 | 38.38573 | 15.48911 | 10876 ft | 321 kts | 160° |
| 2026-05-01 11:21 | 38.36531 | 15.49943 | 10578 ft | 319 kts | 160° |
| 2026-05-01 11:22 | 38.34445 | 15.50999 | 10302 ft | 317 kts | 160° |
| 2026-05-01 11:22 | 38.32452 | 15.52009 | 10139 ft | 310 kts | 160° |
| 2026-05-01 11:22 | 38.30449 | 15.53023 | 9810 ft | 309 kts | 160° |
| 2026-05-01 11:22 | 38.28458 | 15.54031 | 9523 ft | 307 kts | 160° |
| 2026-05-01 11:23 | 38.26479 | 15.55032 | 9237 ft | 306 kts | 160° |
| 2026-05-01 11:23 | 38.24498 | 15.56033 | 8926 ft | 307 kts | 160° |
| 2026-05-01 11:23 | 38.22518 | 15.57034 | 8625 ft | 305 kts | 160° |
| 2026-05-01 11:23 | 38.20551 | 15.58028 | 8345 ft | 303 kts | 160° |
| 2026-05-01 11:24 | 38.18589 | 15.59019 | 8066 ft | 302 kts | 160° |
| 2026-05-01 11:24 | 38.16636 | 15.60005 | 7781 ft | 300 kts | 160° |
| 2026-05-01 11:24 | 38.12832 | 15.61924 | 7086 ft | 287 kts | 161° |
| 2026-05-01 11:25 | 38.10999 | 15.62847 | 6807 ft | 279 kts | 161° |
| 2026-05-01 11:25 | 38.07458 | 15.63680 | 6413 ft | 248 kts | 200° |
| 2026-05-01 11:25 | 38.05945 | 15.62818 | 6190 ft | 232 kts | 220° |
| 2026-05-01 11:26 | 38.04691 | 15.61606 | 6012 ft | 223 kts | 225° |
| 2026-05-01 11:26 | 38.02318 | 15.59147 | 5635 ft | 218 kts | 224° |
| 2026-05-01 11:26 | 38.01142 | 15.57943 | 5448 ft | 216 kts | 224° |
| 2026-05-01 11:27 | 37.99970 | 15.56750 | 5269 ft | 215 kts | 223° |
| 2026-05-01 11:27 | 37.98804 | 15.55569 | 5090 ft | 214 kts | 223° |
| 2026-05-01 11:27 | 37.97555 | 15.54531 | 4892 ft | 220 kts | 199° |
| 2026-05-01 11:27 | 37.96022 | 15.54354 | 4720 ft | 220 kts | 185° |
| 2026-05-01 11:28 | 37.94499 | 15.54246 | 4518 ft | 216 kts | 186° |
| 2026-05-01 11:28 | 37.93025 | 15.54119 | 4349 ft | 209 kts | 187° |
| 2026-05-01 11:28 | 37.91590 | 15.54087 | 4153 ft | 205 kts | 170° |
| 2026-05-01 11:29 | 37.89857 | 15.56513 | 3800 ft | 195 kts | 94° |
| 2026-05-01 11:29 | 37.89888 | 15.58218 | 3621 ft | 194 kts | 81° |
| 2026-05-01 11:29 | 37.91171 | 15.60893 | 3255 ft | 182 kts | 19° |
| 2026-05-01 11:30 | 37.92358 | 15.61406 | 3089 ft | 178 kts | 16° |
| 2026-05-01 11:30 | 37.93488 | 15.61892 | 2934 ft | 165 kts | 16° |
| 2026-05-01 11:30 | 37.94555 | 15.62348 | 2797 ft | 161 kts | 16° |
| 2026-05-01 11:30 | 37.95610 | 15.62793 | 2592 ft | 159 kts | 17° |
| 2026-05-01 11:31 | 37.96669 | 15.63229 | 2360 ft | 161 kts | 15° |
| 2026-05-01 11:31 | 37.97728 | 15.63662 | 2120 ft | 156 kts | 17° |
| 2026-05-01 11:31 | 37.98722 | 15.64070 | 1868 ft | 147 kts | 17° |
| 2026-05-01 11:31 | 37.99691 | 15.64475 | 1679 ft | 146 kts | 17° |
| 2026-05-01 11:32 | 38.00646 | 15.64890 | 1563 ft | 149 kts | 18° |
| 2026-05-01 11:32 | 38.01639 | 15.65319 | 1391 ft | 151 kts | 18° |
| 2026-05-01 11:32 | 38.02631 | 15.65728 | 1217 ft | 148 kts | 18° |
| 2026-05-01 11:32 | 38.03616 | 15.66116 | 996 ft | 149 kts | 16° |
| 2026-05-01 11:33 | 38.04646 | 15.66333 | 729 ft | 152 kts | 0° |
| 2026-05-01 11:33 | 38.05697 | 15.66099 | 369 ft | 156 kts | 334° |
| 2026-05-01 11:33 | 38.06640 | 15.65471 | 57 ft | 151 kts | 330° |
| 2026-05-01 11:33 | 38.07409 | 15.64971 | 52 ft | 73 kts | 333° |
| 2026-05-01 11:34 | 38.07594 | 15.64836 | 52 ft | 5 kts | 328° |
| 2026-05-01 11:34 | 38.07599 | 15.64861 | 54 ft | 5 kts | 139° |
| 2026-05-01 11:34 | 38.07553 | 15.64889 | 51 ft | 12 kts | 156° |
| 2026-05-01 11:34 | 38.07437 | 15.64958 | 51 ft | 23 kts | 154° |
| 2026-05-01 11:35 | 38.07295 | 15.65047 | 47 ft | 13 kts | 146° |
| 2026-05-01 11:35 | 38.07294 | 15.65119 | 47 ft | 9 kts | 69° |
| 2026-05-01 11:35 | 38.07322 | 15.65185 | 48 ft | 8 kts | 59° |
| 2026-05-01 11:35 | 38.07344 | 15.65232 | 47 ft | 3 kts | 60° |
| 2026-05-01 11:36 | 38.07352 | 15.65253 | 48 ft | 0 kts | 65° |
| 2026-05-01 11:36 | 38.07358 | 15.65269 | 48 ft | 4 kts | 63° |
| 2026-05-01 11:36 | 38.07360 | 15.65299 | 48 ft | 3 kts | 106° |
| 2026-05-01 11:37 | 38.07358 | 15.65305 | 48 ft | 0 kts | 111° |